createdAt,value
2022-12-06T00:01:21.117Z,13.90
2022-12-06T00:03:52.926Z,16.90
2022-12-06T00:06:21.384Z,15.90
2022-12-06T00:08:49.006Z,15.17
2022-12-06T00:11:24.236Z,15.20
2022-12-06T00:13:56.019Z,14.27
2022-12-06T00:16:23.717Z,14.00
2022-12-06T00:18:50.820Z,15.67
2022-12-06T00:21:24.508Z,14.07
2022-12-06T00:23:54.622Z,19.87
2022-12-06T00:26:22.134Z,15.23
2022-12-06T00:28:51.972Z,15.30
2022-12-06T00:31:20.394Z,15.53
2022-12-06T00:33:47.143Z,12.93
2022-12-06T00:36:16.679Z,13.17
2022-12-06T00:38:43.324Z,14.40
2022-12-06T00:41:15.315Z,13.23
2022-12-06T00:43:43.246Z,13.93
2022-12-06T00:46:13.663Z,16.03
2022-12-06T00:48:40.066Z,14.20
2022-12-06T00:51:06.522Z,13.23
2022-12-06T00:53:32.858Z,12.30
2022-12-06T00:55:59.246Z,14.77
2022-12-06T00:58:25.750Z,15.63
2022-12-06T01:00:52.548Z,14.50
2022-12-06T01:03:19.422Z,17.47
2022-12-06T01:05:51.021Z,15.37
2022-12-06T01:08:18.482Z,15.57
2022-12-06T01:10:53.317Z,16.33
2022-12-06T01:13:19.752Z,15.17
2022-12-06T01:15:46.151Z,12.53
2022-12-06T01:18:12.630Z,12.93
2022-12-06T01:20:38.968Z,13.50
2022-12-06T01:23:05.303Z,13.70
2022-12-06T01:25:35.903Z,12.33
2022-12-06T01:28:02.898Z,14.03
2022-12-06T01:30:29.471Z,13.97
2022-12-06T01:32:56.014Z,12.27
2022-12-06T01:35:22.442Z,12.80
2022-12-06T01:37:48.803Z,14.83
2022-12-06T01:40:15.380Z,14.00
2022-12-06T01:42:41.734Z,13.83
2022-12-06T01:45:09.882Z,14.13
2022-12-06T01:47:40.807Z,14.73
2022-12-06T01:50:12.438Z,16.03
2022-12-06T01:53:00.006Z,15.10
2022-12-06T01:55:30.866Z,13.73
2022-12-06T01:58:02.274Z,12.50
2022-12-06T02:00:28.603Z,15.33
2022-12-06T02:03:00.305Z,17.27
2022-12-06T02:05:28.698Z,18.03
2022-12-06T02:07:56.374Z,18.30
2022-12-06T02:10:23.174Z,17.60
2022-12-06T02:12:54.570Z,20.00
2022-12-06T02:15:30.513Z,21.57
2022-12-06T02:18:08.913Z,20.73
2022-12-06T02:20:44.665Z,21.27
2022-12-06T02:23:17.135Z,21.13
2022-12-06T02:26:02.875Z,19.07
2022-12-06T02:29:05.099Z,19.47
2022-12-06T02:31:52.956Z,21.43
2022-12-06T02:34:36.046Z,22.60
2022-12-06T02:37:14.117Z,20.07
2022-12-06T02:39:58.578Z,28.30
2022-12-06T02:42:29.402Z,27.00
2022-12-06T02:45:00.678Z,32.27
2022-12-06T02:47:36.602Z,24.33
2022-12-06T02:50:16.473Z,25.37
2022-12-06T02:52:46.490Z,28.13
2022-12-06T02:55:13.491Z,23.17
2022-12-06T02:57:44.068Z,27.80
2022-12-06T03:00:31.903Z,25.03
2022-12-06T03:03:20.160Z,27.43
2022-12-06T03:06:00.502Z,27.80
2022-12-06T03:08:39.782Z,27.13
2022-12-06T03:11:06.619Z,37.03
2022-12-06T03:13:35.769Z,28.27
2022-12-06T03:16:22.439Z,27.43
2022-12-06T03:18:55.992Z,32.83
2022-12-06T03:21:36.994Z,26.50
2022-12-06T03:24:09.247Z,29.97
2022-12-06T03:26:38.486Z,36.73
2022-12-06T03:29:08.815Z,34.73
2022-12-06T03:31:38.692Z,30.03
2022-12-06T03:34:19.288Z,27.40
2022-12-06T03:36:47.703Z,28.20
2022-12-06T03:39:19.594Z,38.90
2022-12-06T03:41:53.575Z,34.30
2022-12-06T03:44:21.356Z,31.43
2022-12-06T03:46:51.481Z,30.73
2022-12-06T03:49:24.433Z,31.80
2022-12-06T03:51:51.006Z,31.63
2022-12-06T03:54:17.409Z,31.33
2022-12-06T03:56:43.784Z,32.07
2022-12-06T03:59:11.512Z,32.30
2022-12-06T04:01:38.718Z,37.40
2022-12-06T04:04:05.683Z,32.27
2022-12-06T04:06:32.110Z,32.50
2022-12-06T04:09:18.486Z,35.40
2022-12-06T04:11:44.896Z,32.83
2022-12-06T04:14:11.399Z,35.90
2022-12-06T04:16:56.510Z,36.60
2022-12-06T04:19:22.895Z,34.43
2022-12-06T04:22:07.839Z,39.73
2022-12-06T04:24:34.822Z,39.57
2022-12-06T04:27:21.191Z,37.87
2022-12-06T04:30:06.348Z,44.93
2022-12-06T04:32:51.127Z,38.17
2022-12-06T04:35:36.085Z,41.40
2022-12-06T04:38:20.841Z,40.03
2022-12-06T04:40:48.287Z,45.77
2022-12-06T04:43:33.339Z,49.17
2022-12-06T04:45:59.735Z,51.93
2022-12-06T04:48:26.052Z,37.77
2022-12-06T04:50:52.530Z,48.60
2022-12-06T04:53:18.959Z,50.20
2022-12-06T04:55:48.699Z,52.23
2022-12-06T04:58:15.884Z,53.97
2022-12-06T05:00:43.757Z,52.10
2022-12-06T05:03:14.486Z,67.23
2022-12-06T05:05:42.222Z,64.47
2022-12-06T05:08:09.450Z,81.50
2022-12-06T05:10:36.195Z,75.27
2022-12-06T05:13:03.062Z,60.63
2022-12-06T05:15:30.114Z,66.13
2022-12-06T05:17:56.705Z,79.57
2022-12-06T05:20:23.656Z,65.73
2022-12-06T05:22:50.179Z,58.60
2022-12-06T05:25:17.187Z,55.53
2022-12-06T05:27:44.746Z,54.83
2022-12-06T05:30:11.787Z,49.87
2022-12-06T05:32:39.260Z,63.83
2022-12-06T05:35:07.010Z,70.53
2022-12-06T05:37:33.378Z,57.73
2022-12-06T05:39:59.988Z,95.57
2022-12-06T05:42:26.713Z,79.17
2022-12-06T05:44:53.030Z,71.20
2022-12-06T05:47:19.401Z,70.47
2022-12-06T05:49:45.841Z,64.40
2022-12-06T05:52:12.159Z,100.67
2022-12-06T05:54:38.507Z,76.33
2022-12-06T05:57:04.843Z,84.40
2022-12-06T05:59:31.432Z,130.20
2022-12-06T06:01:58.043Z,80.10
2022-12-06T06:04:24.596Z,55.53
2022-12-06T06:06:51.603Z,63.30
2022-12-06T06:09:18.002Z,67.07
2022-12-06T06:11:44.308Z,91.37
2022-12-06T06:14:10.742Z,65.83
2022-12-06T06:16:37.164Z,62.63
2022-12-06T06:19:03.588Z,68.10
2022-12-06T06:21:30.092Z,67.07
2022-12-06T06:23:57.770Z,64.50
2022-12-06T06:26:24.350Z,67.40
2022-12-06T06:28:50.730Z,84.63
2022-12-06T06:31:17.260Z,70.87
2022-12-06T06:33:43.753Z,62.50
2022-12-06T06:36:10.601Z,60.77
2022-12-06T06:38:37.787Z,67.27
2022-12-06T06:41:05.211Z,74.10
2022-12-06T06:43:32.140Z,66.33
2022-12-06T06:46:01.623Z,78.67
2022-12-06T06:48:30.971Z,65.10
2022-12-06T06:51:03.370Z,111.77
2022-12-06T06:53:29.768Z,82.27
2022-12-06T06:55:56.107Z,59.50
2022-12-06T06:58:22.923Z,65.50
2022-12-06T07:00:58.019Z,73.50
2022-12-06T07:03:25.074Z,76.43
2022-12-06T07:05:59.105Z,81.07
2022-12-06T07:08:27.387Z,91.57
2022-12-06T07:10:54.206Z,108.80
2022-12-06T07:13:25.815Z,67.67
2022-12-06T07:15:52.909Z,85.30
2022-12-06T07:18:20.022Z,73.77
2022-12-06T07:20:47.496Z,67.93
2022-12-06T07:23:14.944Z,81.97
2022-12-06T07:25:41.969Z,68.63
2022-12-06T07:28:08.361Z,85.10
2022-12-06T07:30:34.874Z,79.43
2022-12-06T07:33:01.421Z,71.20
2022-12-06T07:35:48.367Z,83.23
2022-12-06T07:38:14.103Z,97.33
2022-12-06T07:41:03.504Z,95.67
2022-12-06T07:43:45.506Z,109.50
2022-12-06T07:46:12.661Z,80.37
2022-12-06T07:48:39.094Z,70.73
2022-12-06T07:51:06.015Z,83.07
2022-12-06T07:53:32.409Z,75.67
2022-12-06T07:56:06.091Z,82.93
2022-12-06T07:58:32.400Z,95.47
2022-12-06T08:00:58.797Z,83.83
2022-12-06T08:03:25.134Z,113.90
2022-12-06T08:05:55.710Z,93.43
2022-12-06T08:08:27.999Z,84.63
2022-12-06T08:10:55.785Z,96.77
2022-12-06T08:13:22.232Z,85.63
2022-12-06T08:15:48.663Z,79.17
2022-12-06T08:18:15.152Z,89.50
2022-12-06T08:20:41.499Z,88.27
2022-12-06T08:23:08.388Z,100.40
2022-12-06T08:25:34.856Z,88.20
2022-12-06T08:28:01.199Z,92.13
2022-12-06T08:30:27.659Z,94.03
2022-12-06T08:32:54.048Z,88.17
2022-12-06T08:35:20.573Z,82.33
2022-12-06T08:37:47.061Z,86.43
2022-12-06T08:40:13.947Z,71.60
2022-12-06T08:42:41.906Z,75.37
2022-12-06T08:45:09.206Z,79.10
2022-12-06T08:47:35.699Z,88.80
2022-12-06T08:50:02.359Z,76.70
2022-12-06T08:52:28.940Z,80.00
2022-12-06T08:54:55.441Z,83.53
2022-12-06T08:57:21.779Z,72.63
2022-12-06T08:59:48.146Z,71.03
2022-12-06T09:02:14.582Z,69.37
2022-12-06T09:04:41.045Z,76.60
2022-12-06T09:07:11.494Z,68.83
2022-12-06T09:09:38.278Z,68.93
2022-12-06T09:12:04.707Z,70.10
2022-12-06T09:14:31.076Z,61.73
2022-12-06T09:16:57.396Z,67.97
2022-12-06T09:19:24.036Z,66.50
2022-12-06T09:21:50.914Z,72.23
2022-12-06T09:24:18.713Z,62.30
2022-12-06T09:26:45.152Z,65.40
2022-12-06T09:29:12.589Z,69.70
2022-12-06T09:31:40.254Z,70.57
2022-12-06T09:34:08.524Z,71.00
2022-12-06T09:36:40.423Z,71.53
2022-12-06T09:39:14.454Z,73.77
2022-12-06T09:42:02.825Z,63.07
2022-12-06T09:44:38.809Z,60.53
2022-12-06T09:47:33.093Z,61.27
2022-12-06T09:50:28.307Z,61.57
2022-12-06T09:53:07.903Z,64.37
2022-12-06T09:55:41.300Z,58.30
2022-12-06T09:58:13.659Z,58.37
2022-12-06T10:00:47.984Z,46.50
2022-12-06T10:03:48.024Z,45.33
2022-12-06T10:06:18.467Z,46.17
2022-12-06T10:09:24.029Z,49.93
2022-12-06T10:12:09.994Z,51.07
2022-12-06T10:14:43.734Z,47.53
2022-12-06T10:17:34.952Z,45.67
2022-12-06T10:20:13.098Z,45.47
2022-12-06T10:22:53.569Z,41.73
2022-12-06T10:25:40.469Z,41.30
2022-12-06T10:28:16.747Z,45.07
2022-12-06T10:30:56.231Z,46.60
2022-12-06T10:33:28.454Z,42.63
2022-12-06T10:36:01.490Z,41.80
2022-12-06T10:38:41.480Z,43.13
2022-12-06T10:41:33.060Z,42.17
2022-12-06T10:44:42.890Z,44.10
2022-12-06T10:47:18.118Z,40.63
2022-12-06T10:49:59.974Z,44.53
2022-12-06T10:52:40.920Z,35.47
2022-12-06T10:55:10.714Z,38.83
2022-12-06T10:57:45.779Z,37.83
2022-12-06T11:00:24.882Z,37.17
2022-12-06T11:02:58.725Z,37.47
2022-12-06T11:05:37.293Z,39.80
2022-12-06T11:08:15.089Z,39.67
2022-12-06T11:10:44.952Z,35.27
2022-12-06T11:13:20.403Z,38.27
2022-12-06T11:15:55.559Z,36.50
2022-12-06T11:18:22.566Z,32.03
2022-12-06T11:21:00.335Z,32.17
2022-12-06T11:23:48.247Z,34.83
2022-12-06T11:26:30.852Z,36.13
2022-12-06T11:29:06.122Z,34.23
2022-12-06T11:31:42.599Z,31.13
2022-12-06T11:34:19.823Z,35.33
2022-12-06T11:36:49.612Z,32.90
2022-12-06T11:39:16.776Z,29.67
2022-12-06T11:41:46.377Z,31.60
2022-12-06T11:44:21.681Z,33.13
2022-12-06T11:46:55.571Z,35.40
2022-12-06T11:49:28.613Z,31.30
2022-12-06T11:51:57.654Z,36.97
2022-12-06T11:54:34.477Z,37.83
2022-12-06T11:57:10.858Z,34.40
2022-12-06T11:59:37.359Z,31.43
2022-12-06T12:02:03.984Z,31.33
2022-12-06T12:04:35.422Z,29.73
2022-12-06T12:07:21.053Z,24.40
2022-12-06T12:10:00.513Z,27.90
2022-12-06T12:12:57.938Z,28.27
2022-12-06T12:15:24.411Z,21.13
2022-12-06T12:17:53.528Z,22.67
2022-12-06T12:20:28.106Z,31.87
2022-12-06T12:23:00.757Z,24.23
2022-12-06T12:25:33.585Z,23.07
2022-12-06T12:28:01.538Z,19.87
2022-12-06T12:30:36.229Z,19.77
2022-12-06T12:33:05.751Z,18.13
2022-12-06T12:35:33.575Z,22.03
2022-12-06T12:38:12.294Z,16.80
2022-12-06T12:40:42.461Z,19.50
2022-12-06T12:43:26.853Z,18.47
2022-12-06T12:46:07.853Z,18.63
2022-12-06T12:48:34.855Z,17.27
2022-12-06T12:51:04.571Z,18.40
2022-12-06T12:53:32.122Z,22.10
2022-12-06T12:56:09.724Z,19.17
2022-12-06T12:58:36.481Z,19.17
2022-12-06T13:01:10.394Z,16.80
2022-12-06T13:03:52.865Z,21.10
2022-12-06T13:06:29.577Z,18.90
2022-12-06T13:09:00.664Z,19.37
2022-12-06T13:11:28.907Z,18.23
2022-12-06T13:13:57.768Z,18.13
2022-12-06T13:16:29.323Z,15.73
2022-12-06T13:18:58.950Z,17.00
2022-12-06T13:21:32.294Z,16.60
2022-12-06T13:24:19.914Z,20.43
2022-12-06T13:26:51.989Z,17.00
2022-12-06T13:29:28.088Z,17.47
2022-12-06T13:31:57.890Z,19.50
2022-12-06T13:34:37.445Z,19.07
2022-12-06T13:37:24.734Z,21.07
2022-12-06T13:39:51.293Z,17.53
2022-12-06T13:42:41.927Z,20.37
2022-12-06T13:45:36.308Z,16.63
2022-12-06T13:48:02.872Z,15.83
2022-12-06T13:50:32.225Z,17.23
2022-12-06T13:53:03.042Z,14.17
2022-12-06T13:55:29.281Z,16.73
2022-12-06T13:57:55.573Z,17.53
2022-12-06T14:00:27.923Z,16.27
2022-12-06T14:02:57.043Z,15.03
2022-12-06T14:06:01.018Z,11.50
2022-12-06T14:08:39.180Z,10.63
2022-12-06T14:11:31.343Z,12.27
2022-12-06T14:14:03.436Z,9.30
2022-12-06T14:16:51.060Z,10.40
2022-12-06T14:19:19.347Z,8.17
2022-12-06T14:21:53.459Z,7.67
2022-12-06T14:24:28.962Z,11.37
2022-12-06T14:27:02.732Z,8.73
2022-12-06T14:29:29.251Z,8.00
2022-12-06T14:31:55.819Z,7.33
2022-12-06T14:34:28.250Z,7.33
2022-12-06T14:36:55.934Z,8.77
2022-12-06T14:39:29.559Z,8.10
2022-12-06T14:42:18.786Z,9.00
2022-12-06T14:44:50.773Z,9.93
2022-12-06T14:47:19.571Z,9.13
2022-12-06T14:50:13.482Z,11.43
2022-12-06T14:52:59.007Z,8.40
2022-12-06T14:55:26.992Z,6.87
2022-12-06T14:58:03.099Z,9.53
2022-12-06T15:00:36.445Z,8.70
2022-12-06T15:03:11.351Z,6.93
2022-12-06T15:05:40.502Z,7.07
2022-12-06T15:08:28.405Z,7.77
2022-12-06T15:11:03.710Z,5.80
2022-12-06T15:13:31.078Z,5.87
2022-12-06T15:16:09.836Z,6.77
2022-12-06T15:18:59.310Z,5.23
2022-12-06T15:21:25.692Z,6.47
2022-12-06T15:23:56.267Z,6.30
2022-12-06T15:26:24.622Z,4.53
2022-12-06T15:28:51.908Z,5.77
2022-12-06T15:31:22.333Z,4.70
2022-12-06T15:33:49.131Z,6.77
2022-12-06T15:36:18.920Z,6.20
2022-12-06T15:38:45.774Z,7.20
2022-12-06T15:41:30.331Z,7.53
2022-12-06T15:43:59.698Z,6.87
2022-12-06T15:46:28.574Z,6.80
2022-12-06T15:48:55.810Z,7.40
2022-12-06T15:51:26.788Z,9.47
2022-12-06T15:53:56.404Z,9.37
2022-12-06T15:56:25.061Z,10.30
2022-12-06T15:58:51.511Z,11.13
2022-12-06T16:01:34.415Z,9.47
2022-12-06T16:04:01.187Z,9.97
2022-12-06T16:06:29.362Z,10.63
2022-12-06T16:08:56.387Z,12.00
2022-12-06T16:11:25.251Z,10.10
2022-12-06T16:13:52.340Z,9.03
2022-12-06T16:16:20.478Z,9.13
2022-12-06T16:18:48.040Z,9.87
2022-12-06T16:21:23.183Z,8.93
2022-12-06T16:24:13.169Z,10.80
2022-12-06T16:26:44.044Z,10.07
2022-12-06T16:29:20.884Z,10.27
2022-12-06T16:31:47.772Z,12.37
2022-12-06T16:34:14.290Z,13.27
2022-12-06T16:37:03.884Z,9.87
2022-12-06T16:39:31.825Z,11.83
2022-12-06T16:41:58.163Z,12.50
2022-12-06T16:44:25.043Z,9.40
2022-12-06T16:46:52.076Z,11.57
2022-12-06T16:52:09.530Z,11.13
2022-12-06T16:54:36.107Z,8.27
2022-12-06T16:57:02.486Z,8.70
2022-12-06T16:59:28.955Z,11.23
2022-12-06T17:01:55.370Z,16.10
2022-12-06T17:04:22.160Z,8.87
2022-12-06T17:06:48.824Z,8.70
2022-12-06T17:09:15.570Z,10.60
2022-12-06T17:12:01.248Z,7.70
2022-12-06T17:14:28.155Z,9.20
2022-12-06T17:16:55.500Z,9.27
2022-12-06T17:19:27.880Z,7.70
2022-12-06T17:21:54.398Z,9.90
2022-12-06T17:24:22.296Z,9.37
2022-12-06T17:26:49.085Z,9.93
2022-12-06T17:29:15.915Z,7.97
2022-12-06T17:31:42.674Z,10.77
2022-12-06T17:34:12.197Z,10.37
2022-12-06T17:36:38.577Z,8.40
2022-12-06T17:39:10.104Z,13.97
2022-12-06T17:41:55.300Z,9.63
2022-12-06T17:44:21.632Z,9.87
2022-12-06T17:46:48.444Z,10.47
2022-12-06T17:49:18.254Z,10.90
2022-12-06T17:51:45.138Z,10.80
2022-12-06T17:54:12.705Z,10.47
2022-12-06T17:56:46.813Z,9.33
2022-12-06T17:59:23.033Z,9.20
2022-12-06T18:02:14.253Z,11.63
2022-12-06T18:04:36.999Z,9.97
2022-12-06T18:07:03.429Z,13.07
2022-12-06T18:09:29.862Z,13.73
2022-12-06T18:11:56.802Z,11.27
2022-12-06T18:14:23.092Z,15.73
2022-12-06T18:16:49.654Z,11.13
2022-12-06T18:19:19.291Z,11.47
2022-12-06T18:21:46.234Z,12.07
2022-12-06T18:24:25.767Z,8.87
2022-12-06T18:26:55.376Z,11.23
2022-12-06T18:29:26.191Z,24.73
2022-12-06T18:31:52.838Z,27.23
2022-12-06T18:34:20.014Z,27.33
2022-12-06T18:36:46.590Z,18.47
2022-12-06T18:39:16.036Z,12.60
2022-12-06T18:41:46.930Z,13.53
2022-12-06T18:44:13.505Z,11.97
2022-12-06T18:46:42.075Z,12.93
2022-12-06T18:49:10.634Z,12.33
2022-12-06T18:51:38.460Z,11.20
2022-12-06T18:54:05.218Z,12.00
2022-12-06T18:56:33.427Z,13.17
2022-12-06T18:59:06.058Z,10.97
2022-12-06T19:01:35.453Z,16.93
2022-12-06T19:04:03.641Z,11.03
2022-12-06T19:06:36.634Z,13.07
2022-12-06T19:09:10.021Z,11.07
2022-12-06T19:11:38.752Z,11.10
2022-12-06T19:14:05.519Z,11.73
2022-12-06T19:16:41.335Z,12.43
2022-12-06T19:19:15.864Z,11.93
2022-12-06T19:21:44.110Z,11.03
2022-12-06T19:24:12.619Z,11.43
2022-12-06T19:26:39.431Z,10.00
2022-12-06T19:29:05.919Z,11.83
2022-12-06T19:31:33.225Z,10.37
2022-12-06T19:33:59.884Z,11.37
2022-12-06T19:36:28.915Z,11.70
2022-12-06T19:39:00.750Z,13.73
2022-12-06T19:41:27.639Z,14.23
2022-12-06T19:44:12.711Z,9.10
2022-12-06T19:46:42.534Z,13.53
2022-12-06T19:49:10.271Z,9.73
2022-12-06T19:51:38.578Z,10.73
2022-12-06T19:54:06.918Z,11.07
2022-12-06T19:56:34.004Z,9.93
2022-12-06T19:59:04.222Z,9.10
2022-12-06T20:01:31.290Z,11.37
2022-12-06T20:03:57.821Z,12.50
2022-12-06T20:06:26.437Z,12.63
2022-12-06T20:08:54.835Z,12.60
2022-12-06T20:11:41.509Z,13.63
2022-12-06T20:14:13.302Z,9.87
2022-12-06T20:16:39.946Z,9.40
2022-12-06T20:19:07.354Z,12.93
2022-12-06T20:21:34.968Z,10.43
2022-12-06T20:24:02.213Z,11.00
2022-12-06T20:26:30.006Z,14.33
2022-12-06T20:28:56.607Z,12.97
2022-12-06T20:31:25.794Z,10.67
2022-12-06T20:33:55.894Z,10.07
2022-12-06T20:36:23.453Z,13.87
2022-12-06T20:38:52.349Z,12.47
2022-12-06T20:41:20.967Z,11.63
2022-12-06T20:43:47.791Z,13.10
2022-12-06T20:46:20.532Z,8.40
2022-12-06T20:48:47.013Z,11.07
2022-12-06T20:51:16.472Z,8.37
2022-12-06T20:53:43.767Z,8.83
2022-12-06T20:56:13.156Z,14.17
2022-12-06T20:58:39.625Z,11.73
2022-12-06T21:01:06.165Z,13.77
2022-12-06T21:03:32.921Z,12.63
2022-12-06T21:06:05.231Z,12.33
2022-12-06T21:08:32.104Z,10.33
2022-12-06T21:11:22.066Z,12.97
2022-12-06T21:13:47.726Z,13.60
2022-12-06T21:16:17.129Z,10.60
2022-12-06T21:18:43.970Z,13.43
2022-12-06T21:21:20.284Z,10.73
2022-12-06T21:23:46.681Z,16.40
2022-12-06T21:26:13.233Z,11.17
2022-12-06T21:28:39.568Z,13.77
2022-12-06T21:31:06.079Z,19.83
2022-12-06T21:33:32.615Z,14.67
2022-12-06T21:36:04.423Z,14.07
2022-12-06T21:38:31.550Z,16.20
2022-12-06T21:41:04.535Z,16.33
2022-12-06T21:43:30.917Z,17.37
2022-12-06T21:46:02.901Z,17.03
2022-12-06T21:48:29.413Z,18.33
2022-12-06T21:51:01.373Z,19.57
2022-12-06T21:53:27.738Z,19.77
2022-12-06T21:55:54.286Z,22.53
2022-12-06T21:58:20.774Z,19.07
2022-12-06T22:00:47.133Z,17.57
2022-12-06T22:03:16.395Z,18.40
2022-12-06T22:05:47.814Z,21.77
2022-12-06T22:08:14.360Z,23.17
2022-12-06T22:10:41.418Z,18.00
2022-12-06T22:13:08.201Z,19.13
2022-12-06T22:15:34.627Z,18.50
2022-12-06T22:18:01.117Z,20.67
2022-12-06T22:20:27.447Z,20.77
2022-12-06T22:22:53.890Z,19.23
2022-12-06T22:25:20.233Z,22.53
2022-12-06T22:27:46.703Z,18.10
2022-12-06T22:30:13.255Z,20.93
2022-12-06T22:32:39.614Z,20.40
2022-12-06T22:35:06.694Z,19.43
2022-12-06T22:37:33.048Z,22.47
2022-12-06T22:39:59.775Z,22.87
2022-12-06T22:42:26.507Z,17.80
2022-12-06T22:44:52.791Z,25.37
2022-12-06T22:47:19.144Z,18.77
2022-12-06T22:49:45.562Z,21.27
2022-12-06T22:52:11.903Z,17.83
2022-12-06T22:54:38.267Z,18.43
2022-12-06T22:57:05.862Z,21.13
2022-12-06T22:59:32.429Z,17.53
2022-12-06T23:01:58.823Z,18.83
2022-12-06T23:04:25.310Z,20.63
2022-12-06T23:06:51.638Z,20.00
2022-12-06T23:09:18.153Z,18.53
2022-12-06T23:11:44.773Z,20.53
2022-12-06T23:14:11.434Z,22.10
2022-12-06T23:16:38.251Z,19.60
2022-12-06T23:19:05.323Z,22.57
2022-12-06T23:21:33.956Z,21.33
2022-12-06T23:24:03.036Z,26.07
2022-12-06T23:26:35.660Z,22.97
2022-12-06T23:29:02.740Z,27.17
2022-12-06T23:31:31.637Z,23.33
2022-12-06T23:34:06.832Z,24.37
2022-12-06T23:36:35.515Z,27.93
2022-12-06T23:39:02.592Z,22.83
2022-12-06T23:41:30.843Z,23.27
2022-12-06T23:43:58.731Z,25.83
2022-12-06T23:46:32.149Z,23.07
2022-12-06T23:48:58.731Z,27.97
2022-12-06T23:51:27.911Z,28.00
2022-12-06T23:53:59.228Z,25.50
2022-12-06T23:56:28.478Z,28.83
2022-12-06T23:58:55.511Z,26.30
